Time;durP1;ratioP1;P1;durP2;ratioP2;P2;SDS_P1;SDS_P2;PMS_P1;PMS_P2;Temp;Humidity;BMP_temperature;BMP_pressure;BME280_temperature;BME280_humidity;BME280_pressure;Samples;Min_cycle;Max_cycle;Signal;HPM_P1;HPM_P2
2022/12/21 00:01:40;;;;;;;;;;;6.80;99.90;;;;;;5052040;28;19921;-74
2022/12/21 00:04:06;;;;;;;;;;;6.80;99.90;;;;;;5053984;28;19916;-74
2022/12/21 00:06:33;;;;;;;;;;;6.80;99.90;;;;;;5053262;28;19909;-74
2022/12/21 00:08:59;;;;;;;;;;;6.80;99.90;;;;;;5049945;28;20307;-74
2022/12/21 00:11:26;;;;;;;;;;;6.70;99.90;;;;;;5053663;28;20003;-74
2022/12/21 00:13:52;;;;;;;;;;;6.70;99.90;;;;;;5043351;28;20266;-75
2022/12/21 00:16:19;;;;;;;;;;;6.60;99.90;;;;;;5052362;28;20003;-80
2022/12/21 00:18:46;;;;;;;;;;;6.60;99.90;;;;;;5053576;28;19908;-78
2022/12/21 00:21:13;;;;;;;;;;;6.50;99.90;;;;;;5054272;28;19912;-75
2022/12/21 00:23:39;;;;;;;;;;;6.50;99.90;;;;;;5036184;28;20239;-74
2022/12/21 00:26:05;;;;;;;;;;;6.40;99.90;;;;;;5053980;28;19913;-80
2022/12/21 00:28:31;;;;;;;;;;;6.40;99.90;;;;;;5057764;28;20291;-80
2022/12/21 00:31:08;;;;;;;;;;;6.40;99.90;;;;;;5051597;28;19915;-80
2022/12/21 00:33:35;;;;;;;;;;;6.40;99.90;;;;;;5045412;28;20246;-75
2022/12/21 00:36:00;;;;;;;;;;;6.40;99.90;;;;;;5054172;28;19913;-74
2022/12/21 00:38:26;;;;;;;;;;;6.30;99.90;;;;;;5056419;28;20330;-74
2022/12/21 00:40:55;;;;;;;;;;;6.30;99.90;;;;;;5056074;28;20355;-79
2022/12/21 00:43:21;;;;;;;;;;;6.30;99.90;;;;;;5056945;28;19953;-75
2022/12/21 00:45:46;;;;;;;;;;;6.20;99.90;;;;;;5056831;28;19909;-74
2022/12/21 00:48:12;;;;;;;;;;;6.20;99.90;;;;;;5056718;28;19924;-74
2022/12/21 00:50:37;;;;;;;;;;;6.10;99.90;;;;;;5056878;28;20004;-74
2022/12/21 00:53:03;;;;;;;;;;;6.10;99.90;;;;;;5056323;28;19917;-74
2022/12/21 00:55:28;;;;;;;;;;;6.00;99.90;;;;;;5055858;28;20007;-74
2022/12/21 00:57:54;;;;;;;;;;;6.00;99.90;;;;;;5053966;28;20007;-74
2022/12/21 01:00:20;;;;;;;;;;;5.90;99.90;;;;;;5068201;28;19967;-74
2022/12/21 01:02:45;;;;;;;;;;;5.80;99.90;;;;;;5055843;28;19955;-75
2022/12/21 01:05:11;;;;;;;;;;;5.80;99.90;;;;;;5052357;28;19923;-74
2022/12/21 01:07:36;;;;;;;;;;;5.70;99.90;;;;;;5054738;28;20024;-79
2022/12/21 01:10:02;;;;;;;;;;;5.70;99.90;;;;;;5051938;28;19995;-74
2022/12/21 01:12:28;;;;;;;;;;;5.60;99.90;;;;;;5051749;28;19990;-80
2022/12/21 01:14:53;;;;;;;;;;;5.60;99.90;;;;;;5050440;28;19921;-79
2022/12/21 01:17:19;;;;;;;;;;;5.50;99.90;;;;;;5053437;28;19968;-79
2022/12/21 01:19:45;;;;;;;;;;;5.50;99.90;;;;;;5053544;28;20311;-79
2022/12/21 01:22:10;;;;;;;;;;;5.50;99.90;;;;;;5052089;28;19913;-75
2022/12/21 01:24:36;;;;;;;;;;;5.50;99.90;;;;;;5054726;28;19959;-79
2022/12/21 01:27:01;;;;;;;;;;;5.50;99.90;;;;;;5055722;28;20715;-74
2022/12/21 01:29:27;;;;;;;;;;;5.50;99.90;;;;;;5055289;28;19913;-74
2022/12/21 01:31:52;;;;;;;;;;;5.50;99.90;;;;;;5043386;28;19920;-75
2022/12/21 01:34:18;;;;;;;;;;;5.50;99.90;;;;;;5047804;28;19917;-80
2022/12/21 01:36:43;;;;;;;;;;;5.50;99.90;;;;;;5053498;28;19923;-74
2022/12/21 01:39:09;;;;;;;;;;;5.50;99.90;;;;;;5053774;28;20020;-80
2022/12/21 01:41:34;;;;;;;;;;;5.50;99.90;;;;;;5055597;28;19940;-80
2022/12/21 01:44:01;;;;;;;;;;;5.50;99.90;;;;;;5055193;28;19920;-74
2022/12/21 01:46:56;;;;;;;;;;;5.50;99.90;;;;;;5053606;28;19913;-79
2022/12/21 01:49:24;;;;;;;;;;;5.50;99.90;;;;;;4954526;28;19922;-74
2022/12/21 01:51:58;;;;;;;;;;;5.50;99.90;;;;;;4951864;28;19929;-74
2022/12/21 01:54:26;;;;;;;;;;;5.50;99.90;;;;;;4955415;28;20025;-78
2022/12/21 01:56:55;;;;;;;;;;;5.40;99.90;;;;;;4950096;28;20316;-75
2022/12/21 01:59:31;;;;;;;;;;;5.40;99.90;;;;;;4916802;29;19947;-75
2022/12/21 02:01:58;;;;;;;;;;;5.40;99.90;;;;;;4952390;28;19919;-80
2022/12/21 02:04:23;;;;;;;;;;;5.40;99.90;;;;;;4952776;28;19926;-74
2022/12/21 02:06:56;;;;;;;;;;;5.40;99.90;;;;;;4948650;28;19919;-74
2022/12/21 02:09:22;;;;;;;;;;;5.30;99.90;;;;;;4936045;29;20306;-75
2022/12/21 02:11:49;;;;;;;;;;;5.20;99.90;;;;;;4937276;29;19915;-74
2022/12/21 02:14:15;;;;;;;;;;;5.20;99.90;;;;;;4953721;29;20005;-74
2022/12/21 02:16:40;;;;;;;;;;;5.10;99.90;;;;;;4954870;28;20281;-74
2022/12/21 02:19:31;;;;;;;;;;;5.10;99.90;;;;;;4951914;29;19989;-75
2022/12/21 02:21:59;;;;;;;;;;;5.10;99.90;;;;;;4936219;29;19948;-75
2022/12/21 02:24:27;;;;;;;;;;;5.10;99.90;;;;;;4951990;29;20317;-75
2022/12/21 02:27:02;;;;;;;;;;;5.10;99.90;;;;;;5045284;28;20330;-74
2022/12/21 02:29:34;;;;;;;;;;;5.10;99.90;;;;;;5041371;28;19995;-74
2022/12/21 02:32:18;;;;;;;;;;;5.00;99.90;;;;;;5053944;28;21550;-74
2022/12/21 02:34:49;;;;;;;;;;;5.00;99.90;;;;;;5035243;28;19917;-74
2022/12/21 02:37:35;;;;;;;;;;;5.00;99.90;;;;;;5049844;28;19912;-74
2022/12/21 02:40:01;;;;;;;;;;;5.00;99.90;;;;;;5053289;28;19921;-75
2022/12/21 02:45:33;;;;;;;;;;;5.00;99.90;;;;;;5054882;28;19931;-74
2022/12/21 02:48:05;;;;;;;;;;;5.00;99.90;;;;;;5054751;28;20300;-81
2022/12/21 02:50:37;;;;;;;;;;;5.00;99.90;;;;;;5053706;28;20295;-74
2022/12/21 02:53:13;;;;;;;;;;;4.90;99.90;;;;;;5053452;28;19923;-74
2022/12/21 02:55:39;;;;;;;;;;;4.90;99.90;;;;;;5054880;28;20338;-74
2022/12/21 02:58:14;;;;;;;;;;;4.90;99.90;;;;;;5053682;28;19916;-81
2022/12/21 03:00:52;;;;;;;;;;;4.90;99.90;;;;;;5046916;28;20315;-74
2022/12/21 03:03:49;;;;;;;;;;;4.90;99.90;;;;;;5054292;28;19920;-81
2022/12/21 03:06:26;;;;;;;;;;;4.90;99.90;;;;;;5068574;28;20592;-75
2022/12/21 03:08:55;;;;;;;;;;;4.90;99.90;;;;;;5044900;28;19963;-80
2022/12/21 03:11:26;;;;;;;;;;;4.90;99.90;;;;;;5051249;28;19913;-75
2022/12/21 03:14:02;;;;;;;;;;;5.00;99.90;;;;;;5051655;28;19974;-74
2022/12/21 03:16:31;;;;;;;;;;;5.00;99.90;;;;;;5051815;28;19966;-74
2022/12/21 03:18:59;;;;;;;;;;;5.00;99.90;;;;;;5053245;28;19913;-74
2022/12/21 03:21:37;;;;;;;;;;;5.10;99.90;;;;;;5052746;28;20307;-80
2022/12/21 03:24:21;;;;;;;;;;;5.10;99.90;;;;;;5041087;28;19959;-74
2022/12/21 03:26:56;;;;;;;;;;;5.10;99.90;;;;;;5053083;28;19923;-74
2022/12/21 03:29:25;;;;;;;;;;;5.10;99.90;;;;;;5053437;28;20308;-74
2022/12/21 03:31:54;;;;;;;;;;;5.10;99.90;;;;;;5052013;28;19916;-74
2022/12/21 03:34:28;;;;;;;;;;;5.10;99.90;;;;;;5050068;28;20311;-74
2022/12/21 03:37:04;;;;;;;;;;;5.20;99.90;;;;;;5048224;28;19917;-74
2022/12/21 03:39:30;;;;;;;;;;;5.30;99.90;;;;;;5045875;28;19978;-81
2022/12/21 03:41:57;;;;;;;;;;;5.30;99.90;;;;;;5046820;28;19914;-74
2022/12/21 03:44:26;;;;;;;;;;;5.20;99.90;;;;;;5044814;28;20004;-74
2022/12/21 03:46:56;;;;;;;;;;;5.10;99.90;;;;;;5052708;28;20259;-74
2022/12/21 03:49:24;;;;;;;;;;;5.00;99.90;;;;;;5049973;28;19920;-74
2022/12/21 03:51:52;;;;;;;;;;;5.00;99.90;;;;;;5049752;28;20003;-74
2022/12/21 03:54:36;;;;;;;;;;;5.00;99.90;;;;;;5050897;28;20269;-74
2022/12/21 03:57:02;;;;;;;;;;;5.10;99.90;;;;;;5051442;28;19924;-74
2022/12/21 03:59:28;;;;;;;;;;;5.00;99.90;;;;;;5053695;28;20304;-74
2022/12/21 04:02:08;;;;;;;;;;;4.90;99.90;;;;;;5056549;28;19924;-74
2022/12/21 04:04:40;;;;;;;;;;;4.80;99.90;;;;;;5055066;28;19913;-74
2022/12/21 04:07:07;;;;;;;;;;;4.80;99.90;;;;;;5058802;28;19909;-74
2022/12/21 04:09:33;;;;;;;;;;;4.80;99.90;;;;;;5056554;28;20206;-81
2022/12/21 04:14:43;;;;;;;;;;;4.80;99.90;;;;;;5056084;28;19959;-75
2022/12/21 04:17:08;;;;;;;;;;;4.80;99.90;;;;;;5055475;28;19916;-82
2022/12/21 04:30:31;;;;;;;;;;;4.80;99.90;;;;;;5052278;28;19974;-75
2022/12/21 04:32:57;;;;;;;;;;;4.80;99.90;;;;;;5056590;28;19951;-74
2022/12/21 04:35:22;;;;;;;;;;;4.80;99.90;;;;;;5050864;28;19920;-74
2022/12/21 04:37:48;;;;;;;;;;;4.80;99.90;;;;;;5056347;28;19924;-74
2022/12/21 04:40:13;;;;;;;;;;;4.80;99.90;;;;;;5053978;28;19931;-74
2022/12/21 04:42:39;;;;;;;;;;;4.80;99.90;;;;;;5055975;28;20440;-81
2022/12/21 04:45:05;;;;;;;;;;;4.80;99.90;;;;;;5055052;28;19935;-74
2022/12/21 04:47:31;;;;;;;;;;;4.80;99.90;;;;;;5055374;28;20300;-74
2022/12/21 04:49:56;;;;;;;;;;;4.80;99.90;;;;;;5055098;28;19916;-74
2022/12/21 04:52:22;;;;;;;;;;;4.80;99.90;;;;;;5049290;28;19944;-75
2022/12/21 04:54:47;;;;;;;;;;;4.80;99.90;;;;;;5050791;28;19952;-80
2022/12/21 04:57:13;;;;;;;;;;;4.80;99.90;;;;;;5051345;28;19923;-74
2022/12/21 04:59:38;;;;;;;;;;;4.80;99.90;;;;;;5055412;28;20300;-74
2022/12/21 05:02:04;;;;;;;;;;;4.70;99.90;;;;;;5048445;28;19960;-74
2022/12/21 05:04:30;;;;;;;;;;;4.70;99.90;;;;;;5048369;28;19975;-78
2022/12/21 05:06:56;;;;;;;;;;;4.70;99.90;;;;;;5055188;28;19936;-79
2022/12/21 05:09:22;;;;;;;;;;;4.70;99.90;;;;;;5056929;28;19932;-81
2022/12/21 05:11:48;;;;;;;;;;;4.80;99.90;;;;;;5047020;28;19917;-80
2022/12/21 05:14:14;;;;;;;;;;;4.80;99.90;;;;;;5055224;28;19917;-74
2022/12/21 05:16:39;;;;;;;;;;;4.90;99.90;;;;;;5054074;28;19921;-80
2022/12/21 05:19:05;;;;;;;;;;;4.90;99.90;;;;;;5056514;28;19909;-74
2022/12/21 05:21:30;;;;;;;;;;;4.90;99.90;;;;;;5055567;28;20219;-75
2022/12/21 05:23:56;;;;;;;;;;;5.00;99.90;;;;;;5056653;28;19909;-74
2022/12/21 05:26:22;;;;;;;;;;;5.00;99.90;;;;;;5055432;28;19917;-74
2022/12/21 05:28:47;;;;;;;;;;;5.00;99.90;;;;;;5055236;28;19995;-81
2022/12/21 05:31:14;;;;;;;;;;;5.10;99.90;;;;;;5066103;28;20801;-74
2022/12/21 05:33:39;;;;;;;;;;;5.10;99.90;;;;;;5052341;28;20212;-73
2022/12/21 05:36:06;;;;;;;;;;;5.20;99.90;;;;;;5055442;28;19909;-81
2022/12/21 05:38:32;;;;;;;;;;;5.20;99.90;;;;;;5055161;28;19920;-74
2022/12/21 05:40:57;;;;;;;;;;;5.20;99.90;;;;;;5050604;28;19924;-74
2022/12/21 05:43:23;;;;;;;;;;;5.30;99.90;;;;;;5054592;28;19916;-74
2022/12/21 05:45:48;;;;;;;;;;;5.40;99.90;;;;;;5050747;28;19920;-74
2022/12/21 05:48:14;;;;;;;;;;;5.40;99.90;;;;;;5053668;28;19938;-74
2022/12/21 05:50:40;;;;;;;;;;;5.40;99.90;;;;;;5055448;28;20283;-81
2022/12/21 05:53:06;;;;;;;;;;;5.40;99.90;;;;;;5051373;28;20346;-80
2022/12/21 05:55:32;;;;;;;;;;;5.40;99.90;;;;;;5047988;28;20004;-80
2022/12/21 05:57:57;;;;;;;;;;;5.40;99.90;;;;;;5054675;28;20224;-74
2022/12/21 06:00:23;;;;;;;;;;;5.50;99.90;;;;;;5053667;28;19916;-74
2022/12/21 06:02:48;;;;;;;;;;;5.50;99.90;;;;;;5052478;28;20224;-80
2022/12/21 06:05:14;;;;;;;;;;;5.50;99.90;;;;;;5055075;28;19963;-74
2022/12/21 06:07:39;;;;;;;;;;;5.50;99.90;;;;;;5029283;28;20292;-81
2022/12/21 06:10:05;;;;;;;;;;;5.50;99.90;;;;;;5053543;28;19913;-75
2022/12/21 06:12:31;;;;;;;;;;;5.50;99.90;;;;;;5055749;28;19913;-75
2022/12/21 06:14:57;;;;;;;;;;;5.50;99.90;;;;;;5050303;28;19955;-74
2022/12/21 06:17:22;;;;;;;;;;;5.50;99.90;;;;;;5049925;28;19953;-75
2022/12/21 06:19:48;;;;;;;;;;;5.50;99.90;;;;;;5037940;28;19917;-81
2022/12/21 06:22:14;;;;;;;;;;;5.60;99.90;;;;;;5046777;28;19960;-82
2022/12/21 06:24:39;;;;;;;;;;;5.60;99.90;;;;;;5050893;28;20602;-75
2022/12/21 06:27:05;;;;;;;;;;;5.70;99.90;;;;;;5053832;28;19913;-74
2022/12/21 06:29:30;;;;;;;;;;;5.70;99.90;;;;;;5051921;28;20344;-76
2022/12/21 06:31:56;;;;;;;;;;;5.70;99.90;;;;;;5055105;28;20304;-74
2022/12/21 06:34:21;;;;;;;;;;;5.70;99.90;;;;;;5055602;28;19919;-75
2022/12/21 06:36:47;;;;;;;;;;;5.70;99.90;;;;;;5051033;28;19920;-74
2022/12/21 06:39:12;;;;;;;;;;;5.70;99.90;;;;;;5043479;28;19916;-75
2022/12/21 06:41:38;;;;;;;;;;;5.70;99.90;;;;;;5055617;28;19913;-74
2022/12/21 06:44:03;;;;;;;;;;;5.70;99.90;;;;;;5047314;28;19923;-75
2022/12/21 06:46:29;;;;;;;;;;;5.70;99.90;;;;;;5055185;28;19913;-74
2022/12/21 06:48:54;;;;;;;;;;;5.80;99.90;;;;;;5053053;28;19915;-81
2022/12/21 06:51:21;;;;;;;;;;;5.80;99.90;;;;;;5052300;28;19912;-74
2022/12/21 06:53:48;;;;;;;;;;;5.80;99.90;;;;;;5053845;28;20208;-81
2022/12/21 06:56:18;;;;;;;;;;;5.80;99.90;;;;;;5053301;28;19919;-75
2022/12/21 06:58:44;;;;;;;;;;;5.70;99.90;;;;;;5050960;28;19909;-81
2022/12/21 07:01:30;;;;;;;;;;;5.70;99.90;;;;;;5053340;28;19913;-75
2022/12/21 07:03:56;;;;;;;;;;;5.80;99.90;;;;;;5053012;28;19917;-81
2022/12/21 07:06:22;;;;;;;;;;;5.80;99.90;;;;;;5047458;28;19932;-74
2022/12/21 07:08:48;;;;;;;;;;;5.80;99.90;;;;;;5054166;28;19909;-82
2022/12/21 07:11:15;;;;;;;;;;;5.80;99.90;;;;;;5053062;28;20384;-81
2022/12/21 07:13:41;;;;;;;;;;;5.80;99.90;;;;;;5054231;28;19922;-75
2022/12/21 07:16:08;;;;;;;;;;;5.90;99.90;;;;;;5052722;28;20008;-81
2022/12/21 07:18:34;;;;;;;;;;;5.90;99.90;;;;;;5053421;28;20616;-75
2022/12/21 07:21:02;;;;;;;;;;;5.90;99.90;;;;;;5053811;28;20209;-74
2022/12/21 07:23:28;;;;;;;;;;;5.90;99.90;;;;;;5050558;28;20347;-74
2022/12/21 07:25:54;;;;;;;;;;;5.90;99.90;;;;;;5048709;28;19960;-74
2022/12/21 07:28:21;;;;;;;;;;;5.90;99.90;;;;;;5047479;28;19971;-74
2022/12/21 07:30:48;;;;;;;;;;;5.90;99.90;;;;;;5050082;28;19941;-74
2022/12/21 07:33:16;;;;;;;;;;;5.90;99.90;;;;;;5043805;28;20346;-75
2022/12/21 07:35:42;;;;;;;;;;;5.90;99.90;;;;;;5038459;28;19919;-80
2022/12/21 07:38:08;;;;;;;;;;;6.00;99.90;;;;;;5048352;28;19996;-74
2022/12/21 07:40:33;;;;;;;;;;;6.00;99.90;;;;;;5051939;28;19967;-80
2022/12/21 07:42:59;;;;;;;;;;;6.00;99.90;;;;;;5043684;28;19978;-74
2022/12/21 07:45:24;;;;;;;;;;;6.00;99.90;;;;;;5040540;28;20296;-75
2022/12/21 07:47:50;;;;;;;;;;;6.00;99.90;;;;;;5053146;28;19927;-77
2022/12/21 07:50:15;;;;;;;;;;;6.00;99.90;;;;;;5053438;28;20003;-74
2022/12/21 07:52:41;;;;;;;;;;;6.10;99.90;;;;;;5052468;28;19916;-75
2022/12/21 07:55:07;;;;;;;;;;;6.10;99.90;;;;;;5054455;28;19916;-75
2022/12/21 07:57:32;;;;;;;;;;;6.20;99.90;;;;;;5050660;28;19925;-75
2022/12/21 07:59:58;;;;;;;;;;;6.20;99.90;;;;;;5052690;28;19944;-74
2022/12/21 08:02:23;;;;;;;;;;;6.10;99.90;;;;;;5052775;28;19924;-75
2022/12/21 08:04:49;;;;;;;;;;;6.10;99.90;;;;;;5051876;28;19995;-74
2022/12/21 08:07:14;;;;;;;;;;;6.10;99.90;;;;;;5048568;28;19917;-74
2022/12/21 08:09:40;;;;;;;;;;;6.00;99.90;;;;;;5052290;28;19955;-76
2022/12/21 08:12:06;;;;;;;;;;;6.00;99.90;;;;;;5054298;28;19909;-74
2022/12/21 08:14:31;;;;;;;;;;;6.00;99.90;;;;;;5052791;28;19919;-74
2022/12/21 08:16:57;;;;;;;;;;;6.00;99.90;;;;;;5053292;28;19979;-74
2022/12/21 08:19:22;;;;;;;;;;;6.00;99.90;;;;;;5053035;28;19924;-74
2022/12/21 08:21:48;;;;;;;;;;;6.00;99.90;;;;;;5051792;28;19913;-74
2022/12/21 08:24:13;;;;;;;;;;;6.00;99.90;;;;;;5052501;28;20012;-74
2022/12/21 08:26:39;;;;;;;;;;;6.00;99.90;;;;;;5050618;28;19980;-76
2022/12/21 08:29:05;;;;;;;;;;;6.10;99.90;;;;;;5051360;28;19909;-75
2022/12/21 08:31:30;;;;;;;;;;;6.10;99.90;;;;;;5050730;28;19917;-74
2022/12/21 08:33:56;;;;;;;;;;;6.10;99.90;;;;;;5042556;28;19909;-74
2022/12/21 08:36:23;;;;;;;;;;;6.00;99.90;;;;;;5049110;28;19924;-74
2022/12/21 08:38:48;;;;;;;;;;;6.00;99.90;;;;;;5039928;28;19924;-74
2022/12/21 08:41:14;;;;;;;;;;;6.00;99.90;;;;;;5051180;28;21903;-74
2022/12/21 08:43:40;;;;;;;;;;;6.00;99.90;;;;;;5052512;28;20223;-74
2022/12/21 08:46:08;;;;;;;;;;;6.00;99.90;;;;;;5049567;28;19913;-75
2022/12/21 08:48:34;;;;;;;;;;;6.00;99.90;;;;;;5056107;28;19948;-74
2022/12/21 08:50:59;;;;;;;;;;;6.00;99.90;;;;;;5053217;28;19951;-74
2022/12/21 08:53:25;;;;;;;;;;;6.00;99.90;;;;;;5056118;28;19913;-74
2022/12/21 08:55:51;;;;;;;;;;;6.00;99.90;;;;;;5056310;28;20504;-75
2022/12/21 08:58:17;;;;;;;;;;;5.90;99.90;;;;;;5057093;28;19913;-74
2022/12/21 09:00:43;;;;;;;;;;;6.00;99.90;;;;;;5053487;28;20094;-74
2022/12/21 09:03:09;;;;;;;;;;;6.00;99.90;;;;;;5055549;28;19994;-81
2022/12/21 09:05:35;;;;;;;;;;;6.00;99.90;;;;;;5049592;28;19920;-75
2022/12/21 09:08:00;;;;;;;;;;;6.00;99.90;;;;;;5053465;28;19916;-79
2022/12/21 09:10:26;;;;;;;;;;;6.10;99.90;;;;;;5051096;28;19909;-74
2022/12/21 09:12:54;;;;;;;;;;;6.10;99.90;;;;;;5051851;28;20219;-74
2022/12/21 09:15:20;;;;;;;;;;;6.20;99.90;;;;;;5052987;28;20086;-74
2022/12/21 09:17:46;;;;;;;;;;;6.20;99.90;;;;;;5055109;28;20003;-74
2022/12/21 09:20:11;;;;;;;;;;;6.20;99.90;;;;;;5056266;28;20070;-75
2022/12/21 09:22:37;;;;;;;;;;;6.20;99.90;;;;;;5054890;28;19925;-74
2022/12/21 09:25:03;;;;;;;;;;;6.30;99.90;;;;;;5051337;28;19955;-75
2022/12/21 09:27:29;;;;;;;;;;;6.40;99.90;;;;;;5053074;28;19916;-74
2022/12/21 09:29:55;;;;;;;;;;;6.40;99.90;;;;;;5050613;28;19908;-80
2022/12/21 09:32:21;;;;;;;;;;;6.40;99.90;;;;;;5051908;28;19912;-73
2022/12/21 09:34:47;;;;;;;;;;;6.40;99.90;;;;;;5050442;28;20223;-74
2022/12/21 09:37:12;;;;;;;;;;;6.40;99.90;;;;;;5054411;28;20364;-75
2022/12/21 09:39:38;;;;;;;;;;;6.50;99.90;;;;;;5054546;28;20016;-74
2022/12/21 09:42:12;;;;;;;;;;;6.60;99.90;;;;;;5051619;28;19927;-74
2022/12/21 09:44:38;;;;;;;;;;;6.70;99.90;;;;;;5056147;28;19968;-81
2022/12/21 09:47:04;;;;;;;;;;;6.80;99.90;;;;;;5053203;28;19952;-80
2022/12/21 09:49:48;;;;;;;;;;;6.90;99.90;;;;;;5050020;28;19921;-75
2022/12/21 09:52:17;;;;;;;;;;;6.90;99.90;;;;;;5049889;28;19917;-75
2022/12/21 09:54:49;;;;;;;;;;;6.90;99.90;;;;;;5055354;28;20338;-74
2022/12/21 09:57:15;;;;;;;;;;;6.90;99.90;;;;;;5048963;28;20318;-74
2022/12/21 09:59:40;;;;;;;;;;;6.90;99.90;;;;;;5054698;28;19917;-76
2022/12/21 10:02:09;;;;;;;;;;;6.90;99.90;;;;;;5044747;28;19945;-74
2022/12/21 10:04:48;;;;;;;;;;;6.90;99.90;;;;;;5052594;28;19909;-80
2022/12/21 10:07:14;;;;;;;;;;;6.80;99.90;;;;;;5051038;28;20311;-76
2022/12/21 10:09:51;;;;;;;;;;;6.80;99.90;;;;;;5055956;28;19920;-80
2022/12/21 10:12:17;;;;;;;;;;;6.80;99.90;;;;;;5055625;28;19939;-80
2022/12/21 10:14:58;;;;;;;;;;;6.80;99.90;;;;;;5052364;28;20262;-79
2022/12/21 10:17:23;;;;;;;;;;;6.80;99.90;;;;;;5052483;28;19912;-75
2022/12/21 10:19:49;;;;;;;;;;;6.90;99.90;;;;;;5052200;28;20267;-80
2022/12/21 10:22:25;;;;;;;;;;;6.90;99.90;;;;;;5051039;28;19917;-75
2022/12/21 10:24:56;;;;;;;;;;;6.90;99.90;;;;;;5050045;28;19966;-74
2022/12/21 10:27:27;;;;;;;;;;;6.90;99.90;;;;;;5050762;28;19913;-77
2022/12/21 10:29:56;;;;;;;;;;;6.90;99.90;;;;;;5054370;28;19913;-76
2022/12/21 10:32:22;;;;;;;;;;;7.00;99.90;;;;;;5032993;28;19935;-75
2022/12/21 10:34:49;;;;;;;;;;;7.00;99.90;;;;;;5054786;28;20294;-78
2022/12/21 10:37:16;;;;;;;;;;;7.10;99.90;;;;;;5047034;28;20000;-74
2022/12/21 10:39:43;;;;;;;;;;;7.10;99.90;;;;;;5045975;28;19948;-75
2022/12/21 10:42:20;;;;;;;;;;;7.20;99.90;;;;;;5036770;28;19929;-75
2022/12/21 10:44:46;;;;;;;;;;;7.20;99.90;;;;;;5046535;28;19913;-76
2022/12/21 10:47:16;;;;;;;;;;;7.20;99.90;;;;;;5052826;28;19936;-76
2022/12/21 10:49:47;;;;;;;;;;;7.30;99.90;;;;;;5051658;28;20003;-76
2022/12/21 10:52:31;;;;;;;;;;;7.30;99.90;;;;;;5049258;28;19963;-75
2022/12/21 10:54:57;;;;;;;;;;;7.30;99.90;;;;;;5053548;28;19920;-75
2022/12/21 10:57:27;;;;;;;;;;;7.40;99.90;;;;;;5054827;28;19913;-75
2022/12/21 10:59:52;;;;;;;;;;;7.40;99.90;;;;;;5054872;28;19936;-79
2022/12/21 11:02:32;;;;;;;;;;;7.40;99.90;;;;;;5053843;28;19921;-79
2022/12/21 11:04:58;;;;;;;;;;;7.40;99.90;;;;;;5054032;28;19913;-75
2022/12/21 11:07:25;;;;;;;;;;;7.50;99.90;;;;;;5052132;28;20278;-79
2022/12/21 11:09:55;;;;;;;;;;;7.50;99.90;;;;;;5050841;28;19917;-78
2022/12/21 11:12:24;;;;;;;;;;;7.50;99.90;;;;;;5054197;28;19916;-77
2022/12/21 11:14:50;;;;;;;;;;;7.50;99.90;;;;;;5054276;28;19909;-78
2022/12/21 11:17:26;;;;;;;;;;;7.40;99.90;;;;;;5055033;28;19958;-77
2022/12/21 11:20:15;;;;;;;;;;;7.40;99.90;;;;;;5053931;28;19913;-78
2022/12/21 11:22:42;;;;;;;;;;;7.30;99.90;;;;;;5050317;28;19956;-76
2022/12/21 11:25:18;;;;;;;;;;;7.30;99.90;;;;;;5050189;28;20282;-78
2022/12/21 11:27:45;;;;;;;;;;;7.30;99.90;;;;;;5046683;28;19935;-75
2022/12/21 11:30:21;;;;;;;;;;;7.30;99.90;;;;;;5050953;28;20294;-78
2022/12/21 11:32:47;;;;;;;;;;;7.40;99.90;;;;;;5050636;28;19916;-82
2022/12/21 11:35:35;;;;;;;;;;;7.30;99.90;;;;;;5046821;28;19908;-76
2022/12/21 11:38:03;;;;;;;;;;;7.30;99.90;;;;;;5051050;28;19923;-76
2022/12/21 11:40:29;;;;;;;;;;;7.30;99.90;;;;;;5049193;28;20217;-79
2022/12/21 11:42:58;;;;;;;;;;;7.40;99.90;;;;;;5053535;28;19959;-77
2022/12/21 11:45:29;;;;;;;;;;;7.30;99.90;;;;;;5053667;28;19912;-79
2022/12/21 11:48:10;;;;;;;;;;;7.30;99.90;;;;;;5052384;28;19956;-75
2022/12/21 11:50:43;;;;;;;;;;;7.30;99.90;;;;;;5049882;28;19963;-79
2022/12/21 11:53:09;;;;;;;;;;;7.30;99.90;;;;;;5053715;28;19913;-76
2022/12/21 11:55:37;;;;;;;;;;;7.30;99.90;;;;;;5052844;28;19915;-78
2022/12/21 11:58:15;;;;;;;;;;;7.30;99.90;;;;;;5053226;28;19912;-77
2022/12/21 12:00:49;;;;;;;;;;;7.20;99.90;;;;;;5053267;28;19971;-78
2022/12/21 12:03:20;;;;;;;;;;;7.30;99.90;;;;;;5052006;28;20304;-79
2022/12/21 12:06:12;;;;;;;;;;;7.30;99.90;;;;;;5054598;28;20003;-79
2022/12/21 12:08:49;;;;;;;;;;;7.30;99.90;;;;;;5044427;28;19920;-80
2022/12/21 12:11:15;;;;;;;;;;;7.30;99.90;;;;;;5050488;28;20304;-77
2022/12/21 12:13:59;;;;;;;;;;;7.30;99.90;;;;;;5042197;28;19909;-76
2022/12/21 12:16:30;;;;;;;;;;;7.40;99.90;;;;;;5054545;28;19909;-75
2022/12/21 12:19:02;;;;;;;;;;;7.40;99.90;;;;;;5040276;28;19916;-79
2022/12/21 12:21:33;;;;;;;;;;;7.40;99.90;;;;;;5050898;28;19963;-76
2022/12/21 12:24:11;;;;;;;;;;;7.40;99.90;;;;;;5045215;28;20373;-76
2022/12/21 12:26:44;;;;;;;;;;;7.40;99.90;;;;;;5057564;28;19947;-76
2022/12/21 12:29:20;;;;;;;;;;;7.40;99.90;;;;;;5056580;28;19940;-78
2022/12/21 12:31:57;;;;;;;;;;;7.40;99.90;;;;;;5057303;28;20207;-76
2022/12/21 12:34:41;;;;;;;;;;;7.40;99.90;;;;;;5040292;28;19963;-77
2022/12/21 12:37:19;;;;;;;;;;;7.40;99.90;;;;;;5053523;28;19921;-80
2022/12/21 12:39:48;;;;;;;;;;;7.40;99.90;;;;;;5047870;28;19920;-78
2022/12/21 12:42:16;;;;;;;;;;;7.30;99.90;;;;;;5052867;28;19913;-79
2022/12/21 12:44:48;;;;;;;;;;;7.30;99.90;;;;;;5053386;28;20333;-78
2022/12/21 12:47:19;;;;;;;;;;;7.30;99.90;;;;;;5053312;28;19913;-75
2022/12/21 12:49:51;;;;;;;;;;;7.30;99.90;;;;;;5040688;28;20179;-78
2022/12/21 12:52:20;;;;;;;;;;;7.30;99.90;;;;;;5055311;28;19913;-79
2022/12/21 12:55:06;;;;;;;;;;;7.30;99.90;;;;;;5048514;28;22949;-77
2022/12/21 12:57:46;;;;;;;;;;;7.30;99.90;;;;;;5056025;28;19919;-78
2022/12/21 13:00:13;;;;;;;;;;;7.30;99.90;;;;;;5054593;28;19913;-78
2022/12/21 13:02:48;;;;;;;;;;;7.30;99.90;;;;;;5055503;28;19923;-79
2022/12/21 13:05:24;;;;;;;;;;;7.30;99.90;;;;;;5051872;28;19944;-78
2022/12/21 13:08:04;;;;;;;;;;;7.30;99.90;;;;;;5050978;28;20011;-78
2022/12/21 13:10:36;;;;;;;;;;;7.30;99.90;;;;;;5055121;28;19916;-76
2022/12/21 13:13:28;;;;;;;;;;;7.30;99.90;;;;;;5056068;28;19909;-82
2022/12/21 13:15:55;;;;;;;;;;;7.30;99.90;;;;;;5023683;28;19917;-77
2022/12/21 13:18:24;;;;;;;;;;;7.30;99.90;;;;;;5052582;28;19917;-76
2022/12/21 13:20:52;;;;;;;;;;;7.30;99.90;;;;;;5051356;28;19916;-79
2022/12/21 13:23:31;;;;;;;;;;;7.30;99.90;;;;;;5055644;28;19962;-79
2022/12/21 13:26:00;;;;;;;;;;;7.30;99.90;;;;;;5055578;28;19920;-81
2022/12/21 13:28:26;;;;;;;;;;;7.40;99.90;;;;;;5053843;28;19999;-79
2022/12/21 13:30:53;;;;;;;;;;;7.30;99.90;;;;;;5054127;28;20066;-78
2022/12/21 13:33:19;;;;;;;;;;;7.40;99.90;;;;;;5054132;28;19924;-81
2022/12/21 13:36:00;;;;;;;;;;;7.40;99.90;;;;;;5053039;28;19915;-74
2022/12/21 13:38:28;;;;;;;;;;;7.40;99.90;;;;;;5056847;28;19919;-81
2022/12/21 13:41:15;;;;;;;;;;;7.40;99.90;;;;;;5053725;28;20284;-78
2022/12/21 13:43:41;;;;;;;;;;;7.40;99.90;;;;;;5056237;28;20345;-76
2022/12/21 13:46:07;;;;;;;;;;;7.40;99.90;;;;;;5055566;28;19996;-86
2022/12/21 13:48:33;;;;;;;;;;;7.40;99.90;;;;;;5052327;28;19916;-78
2022/12/21 13:51:24;;;;;;;;;;;7.40;99.90;;;;;;5051858;28;19921;-78
2022/12/21 13:53:59;;;;;;;;;;;7.40;99.90;;;;;;5051854;28;19924;-78
2022/12/21 13:56:45;;;;;;;;;;;7.40;99.90;;;;;;5046094;28;19909;-80
2022/12/21 13:59:31;;;;;;;;;;;7.40;99.90;;;;;;5048544;28;19917;-75
2022/12/21 14:02:16;;;;;;;;;;;7.40;99.90;;;;;;5048538;28;19927;-79
2022/12/21 14:04:45;;;;;;;;;;;7.40;99.90;;;;;;5051015;28;20219;-78
2022/12/21 14:07:20;;;;;;;;;;;7.40;99.90;;;;;;5053427;28;20220;-78
2022/12/21 14:10:09;;;;;;;;;;;7.40;99.90;;;;;;5056117;28;19916;-78
2022/12/21 14:12:53;;;;;;;;;;;7.40;99.90;;;;;;5043672;28;20223;-78
2022/12/21 14:15:24;;;;;;;;;;;7.40;99.90;;;;;;5052681;28;20477;-77
2022/12/21 14:17:50;;;;;;;;;;;7.40;99.90;;;;;;5055427;28;19908;-79
2022/12/21 14:20:27;;;;;;;;;;;7.40;99.90;;;;;;5055348;28;19913;-79
2022/12/21 14:22:54;;;;;;;;;;;7.40;99.90;;;;;;5051791;28;19971;-76
2022/12/21 14:25:31;;;;;;;;;;;7.40;99.90;;;;;;5054547;28;20574;-79
2022/12/21 14:28:14;;;;;;;;;;;7.40;99.90;;;;;;5055031;28;19916;-76
2022/12/21 14:30:46;;;;;;;;;;;7.40;99.90;;;;;;5053551;28;20000;-78
2022/12/21 14:33:15;;;;;;;;;;;7.40;99.90;;;;;;5054736;28;20290;-76
2022/12/21 14:35:41;;;;;;;;;;;7.40;99.90;;;;;;5051899;28;19912;-77
2022/12/21 14:38:08;;;;;;;;;;;7.40;99.90;;;;;;5053698;28;19954;-76
2022/12/21 14:40:54;;;;;;;;;;;7.30;99.90;;;;;;5054029;28;20379;-77
2022/12/21 14:43:20;;;;;;;;;;;7.40;99.90;;;;;;5053440;28;20170;-80
2022/12/21 14:45:46;;;;;;;;;;;7.30;99.90;;;;;;5055647;28;19916;-79
2022/12/21 14:48:23;;;;;;;;;;;7.30;99.90;;;;;;5052455;28;19940;-77
2022/12/21 14:50:50;;;;;;;;;;;7.40;99.90;;;;;;5042714;28;20275;-76
2022/12/21 14:53:21;;;;;;;;;;;7.30;99.90;;;;;;5050375;28;19912;-78
2022/12/21 14:55:59;;;;;;;;;;;7.30;99.90;;;;;;5053352;28;19963;-76
2022/12/21 14:58:29;;;;;;;;;;;7.30;99.90;;;;;;5054023;28;19917;-78
2022/12/21 15:01:13;;;;;;;;;;;7.30;99.90;;;;;;5049276;28;19917;-79